Map

Track Data

SID SEASON NUMBER BASIN SUBBASIN NAME ISO_TIME NATURE LAT LON WMO_WIND WMO_PRES WMO_AGENCY TRACK_TYPE DIST2LAND LANDFALL IFLAG USA_AGENCY USA_ATCF_ID USA_LAT USA_LON USA_RECORD USA_STATUS USA_WIND USA_PRES USA_SSHS USA_R34_NE USA_R34_SE USA_R34_SW USA_R34_NW USA_R50_NE USA_R50_SE USA_R50_SW USA_R50_NW USA_R64_NE USA_R64_SE USA_R64_SW USA_R64_NW USA_POCI USA_ROCI USA_RMW USA_EYE TOKYO_LAT TOKYO_LON TOKYO_GRADE TOKYO_WIND TOKYO_PRES TOKYO_R50_DIR TOKYO_R50_LONG TOKYO_R50_SHORT TOKYO_R30_DIR TOKYO_R30_LONG TOKYO_R30_SHORT TOKYO_LAND CMA_LAT CMA_LON CMA_CAT CMA_WIND CMA_PRES HKO_LAT HKO_LON HKO_CAT HKO_WIND HKO_PRES NEWDELHI_LAT NEWDELHI_LON NEWDELHI_GRADE NEWDELHI_WIND NEWDELHI_PRES NEWDELHI_CI NEWDELHI_DP NEWDELHI_POCI REUNION_LAT REUNION_LON REUNION_TYPE REUNION_WIND REUNION_PRES REUNION_TNUM REUNION_CI REUNION_RMW REUNION_R34_NE REUNION_R34_SE REUNION_R34_SW REUNION_R34_NW REUNION_R50_NE REUNION_R50_SE REUNION_R50_SW REUNION_R50_NW REUNION_R64_NE REUNION_R64_SE REUNION_R64_SW REUNION_R64_NW BOM_LAT BOM_LON BOM_TYPE BOM_WIND BOM_PRES BOM_TNUM BOM_CI BOM_RMW BOM_R34_NE BOM_R34_SE BOM_R34_SW BOM_R34_NW BOM_R50_NE BOM_R50_SE BOM_R50_SW BOM_R50_NW BOM_R64_NE BOM_R64_SE BOM_R64_SW BOM_R64_NW BOM_ROCI BOM_POCI BOM_EYE BOM_POS_METHOD BOM_PRES_METHOD NADI_LAT NADI_LON NADI_CAT NADI_WIND NADI_PRES WELLINGTON_LAT WELLINGTON_LON WELLINGTON_WIND WELLINGTON_PRES DS824_LAT DS824_LON DS824_STAGE DS824_WIND DS824_PRES TD9636_LAT TD9636_LON TD9636_STAGE TD9636_WIND TD9636_PRES TD9635_LAT TD9635_LON TD9635_WIND TD9635_PRES TD9635_ROCI NEUMANN_LAT NEUMANN_LON NEUMANN_CLASS NEUMANN_WIND NEUMANN_PRES MLC_LAT MLC_LON MLC_CLASS MLC_WIND MLC_PRES USA_GUST BOM_GUST BOM_GUST_PER REUNION_GUST REUNION_GUST_PER USA_SEAHGT USA_SEARAD_NE USA_SEARAD_SE USA_SEARAD_SW USA_SEARAD_NW STORM_SPEED STORM_DIR
1898345S17043 1899 61 SI MM NOT_NAMED 1898-12-11 00:00:00 TS -17.1000 43.3000 main 77 71 _________O____ -1 -17.1000 43.3000 TC 2 0
1898345S17043 1899 61 SI MM NOT_NAMED 1898-12-11 03:00:00 TS -17.1975 43.3000 main 71 67 _________P____ -1 -17.1975 43.3000 TC 2 172
1898345S17043 1899 61 SI MM NOT_NAMED 1898-12-11 06:00:00 TS -17.3000 43.3000 main 67 64 _________O____ -1 -17.3000 43.3000 TC 2 0
1898345S17043 1899 61 SI MM NOT_NAMED 1898-12-11 09:00:00 TS -17.4075 43.3000 main 64 63 _________P____ -1 -17.4075 43.3000 TC 2 172
1898345S17043 1899 61 SI MM NOT_NAMED 1898-12-11 12:00:00 TS -17.5000 43.3000 main 63 63 _________O____ -1 -17.5000 43.3000 TC 2 0
1898345S17043 1899 61 SI MM NOT_NAMED 1898-12-11 15:00:00 TS -17.5575 43.3000 main 64 64 _________P____ -1 -17.5575 43.3000 TC 1 0
1898345S17043 1899 61 SI MM NOT_NAMED 1898-12-11 18:00:00 TS -17.6000 43.3000 main 64 64 _________O____ -1 -17.6000 43.3000 TC 1 164
1898345S17043 1899 61 SI MM NOT_NAMED 1898-12-11 21:00:00 TS -17.6425 43.3000 main 64 64 _________P____ -1 -17.6425 43.3000 TC 1 0
1898345S17043 1899 61 SI MM NOT_NAMED 1898-12-12 00:00:00 TS -17.7000 43.3000 main 67 67 _________O____ -1 -17.7000 43.3000 TC 1 177
1898345S17043 1899 61 SI MM NOT_NAMED 1898-12-12 03:00:00 TS -17.7850 43.3000 main 71 71 _________P____ -1 -17.7850 43.3000 TC 2 172
1898345S17043 1899 61 SI MM NOT_NAMED 1898-12-12 06:00:00 TS -17.9000 43.3000 main 74 74 _________O____ -1 -17.9000 43.3000 TC 3 0
1898345S17043 1899 61 SI MM NOT_NAMED 1898-12-12 09:00:00 TS -18.0575 43.3000 main 73 73 _________P____ -1 -18.0575 43.3000 TC 3 0
1898345S17043 1899 61 SI MM NOT_NAMED 1898-12-12 12:00:00 TS -18.2000 43.3000 main 73 73 _________O____ -1 -18.2000 43.3000 TC 2 172
1898345S17043 1899 61 SI MM NOT_NAMED 1898-12-12 15:00:00 TS -18.2575 43.3000 main 73 73 _________P____ -1 -18.2575 43.3000 TC 1 0
1898345S17043 1899 61 SI MM NOT_NAMED 1898-12-12 18:00:00 TS -18.3000 43.3000 main 73 73 _________O____ -1 -18.3000 43.3000 TC 1 170
1898345S17043 1899 61 SI MM NOT_NAMED 1898-12-12 21:00:00 TS -18.3925 43.3000 main 73 73 _________P____ -1 -18.3925 43.3000 TC 2 188
1898345S17043 1899 61 SI MM NOT_NAMED 1898-12-13 00:00:00 TS -18.5000 43.3000 main 74 74 _________O____ -1 -18.5000 43.3000 TC 2 172
1898345S17043 1899 61 SI MM NOT_NAMED 1898-12-13 03:00:00 TS -18.6000 43.3000 main 77 77 _________P____ -1 -18.6000 43.3000 TC 2 172
1898345S17043 1899 61 SI MM NOT_NAMED 1898-12-13 06:00:00 TS -18.7000 43.3000 main 81 81 _________O____ -1 -18.7000 43.3000 TC 2 172
1898345S17043 1899 61 SI MM NOT_NAMED 1898-12-13 09:00:00 TS -18.8075 43.3000 main 86 86 _________P____ -1 -18.8075 43.3000 TC 2 172
1898345S17043 1899 61 SI MM NOT_NAMED 1898-12-13 12:00:00 TS -18.9000 43.3000 main 92 92 _________O____ -1 -18.9000 43.3000 TC 1 177
1898345S17043 1899 61 SI MM NOT_NAMED 1898-12-13 15:00:00 TS -18.9500 43.3000 main 92 94 _________P____ -1 -18.9500 43.3000 TC 1 0
1898345S17043 1899 61 SI MM NOT_NAMED 1898-12-13 18:00:00 TS -19.0000 43.3000 main 94 94 _________O____ -1 -19.0000 43.3000 TC 2 0
1898345S17043 1899 61 SI MM NOT_NAMED 1898-12-13 21:00:00 TS -19.1000 43.3000 main 94 94 _________P____ -1 -19.1000 43.3000 TC 2 172
1898345S17043 1899 61 SI MM NOT_NAMED 1898-12-14 00:00:00 TS -19.2000 43.3000 main 95 95 _________O____ -1 -19.2000 43.3000 TC 2 0
1898345S17043 1899 61 SI MM NOT_NAMED 1898-12-14 03:00:00 TS -19.2500 43.3000 main 95 95 _________P____ -1 -19.2500 43.3000 TC 1 0
1898345S17043 1899 61 SI MM NOT_NAMED 1898-12-14 06:00:00 TS -19.3000 43.3000 main 97 97 _________O____ -1 -19.3000 43.3000 TC 2 0
1898345S17043 1899 61 SI MM NOT_NAMED 1898-12-14 09:00:00 TS -19.4000 43.3000 main 100 100 _________P____ -1 -19.4000 43.3000 TC 2 172
1898345S17043 1899 61 SI MM NOT_NAMED 1898-12-14 12:00:00 TS -19.5000 43.3000 main 104 104 _________O____ -1 -19.5000 43.3000 TC 2 0
1898345S17043 1899 61 SI MM NOT_NAMED 1898-12-14 15:00:00 TS -19.5500 43.2925 main 104 104 _________P____ -1 -19.5500 43.2925 TC 1 0
1898345S17043 1899 61 SI MM NOT_NAMED 1898-12-14 18:00:00 TS -19.6000 43.3000 main 109 109 _________O____ -1 -19.6000 43.3000 TC 1 156
1898345S17043 1899 61 SI MM NOT_NAMED 1898-12-14 21:00:00 TS -19.6850 43.3500 main 115 104 _________P____ -1 -19.6850 43.3500 TC 2 153
1898345S17043 1899 61 SI MM NOT_NAMED 1898-12-15 00:00:00 TS -19.8000 43.4000 main 104 99 _________O____ -1 -19.8000 43.4000 TC 3 168
1898345S17043 1899 61 SI MM NOT_NAMED 1898-12-15 03:00:00 TS -19.9500 43.4075 main 99 85 _________P____ -1 -19.9500 43.4075 TC 3 0
1898345S17043 1899 61 SI MM NOT_NAMED 1898-12-15 06:00:00 TS -20.1000 43.4000 main 85 80 _________O____ -1 -20.1000 43.4000 TC 3 183
1898345S17043 1899 61 SI MM NOT_NAMED 1898-12-15 09:00:00 TS -20.2150 43.4000 main 80 76 _________P____ -1 -20.2150 43.4000 TC 2 172
1898345S17043 1899 61 SI MM NOT_NAMED 1898-12-15 12:00:00 TS -20.3000 43.4000 main 76 68 _________O____ -1 -20.3000 43.4000 TC 1 177
1898345S17043 1899 61 SI MM NOT_NAMED 1898-12-15 15:00:00 TS -20.3575 43.4000 main 68 68 _________P____ -1 -20.3575 43.4000 TC 1 0
1898345S17043 1899 61 SI MM NOT_NAMED 1898-12-15 18:00:00 TS -20.4000 43.4000 main 68 68 _________O____ -1 -20.4000 43.4000 TC 1 0
1898345S17043 1899 61 SI MM NOT_NAMED 1898-12-15 21:00:00 TS -20.4475 43.4000 main 68 61 _________P____ -1 -20.4475 43.4000 TC 1 0
1898345S17043 1899 61 SI MM NOT_NAMED 1898-12-16 00:00:00 TS -20.5000 43.4000 main 61 _________O____ -1 -20.5000 43.4000 TC 1 160

About IBTrACS Database

This database is a web-friendly format of International Best Track Archive for Climate Stewardship (IBTrACS), a global best track data archive curated by NOAA dating back to 1842.

Updated: 2021-11-26